sensor_id;sensor_type;location;lat;lon;timestamp;P1;durP1;ratioP1;P2;durP2;ratioP2
17382;SDS011;8809;51.892;8.384;2024-03-25T00:00:32;10.45;;;2.83;;
17382;SDS011;8809;51.892;8.384;2024-03-25T00:02:59;8.60;;;3.00;;
17382;SDS011;8809;51.892;8.384;2024-03-25T00:05:26;8.93;;;2.60;;
17382;SDS011;8809;51.892;8.384;2024-03-25T00:07:52;9.95;;;3.00;;
17382;SDS011;8809;51.892;8.384;2024-03-25T00:10:19;15.90;;;3.85;;
17382;SDS011;8809;51.892;8.384;2024-03-25T00:12:47;12.60;;;3.38;;
17382;SDS011;8809;51.892;8.384;2024-03-25T00:15:18;12.77;;;3.45;;
17382;SDS011;8809;51.892;8.384;2024-03-25T00:17:45;8.82;;;2.90;;
17382;SDS011;8809;51.892;8.384;2024-03-25T00:20:13;12.98;;;3.60;;
17382;SDS011;8809;51.892;8.384;2024-03-25T00:22:40;12.65;;;3.85;;
17382;SDS011;8809;51.892;8.384;2024-03-25T00:25:08;15.70;;;4.38;;
17382;SDS011;8809;51.892;8.384;2024-03-25T00:27:34;12.50;;;3.80;;
17382;SDS011;8809;51.892;8.384;2024-03-25T00:30:03;12.68;;;4.13;;
17382;SDS011;8809;51.892;8.384;2024-03-25T00:32:30;15.02;;;4.38;;
17382;SDS011;8809;51.892;8.384;2024-03-25T00:34:57;14.63;;;4.30;;
17382;SDS011;8809;51.892;8.384;2024-03-25T00:37:23;10.63;;;3.83;;
17382;SDS011;8809;51.892;8.384;2024-03-25T00:39:50;14.75;;;4.63;;
17382;SDS011;8809;51.892;8.384;2024-03-25T00:42:16;13.80;;;4.50;;
17382;SDS011;8809;51.892;8.384;2024-03-25T00:44:43;14.90;;;4.13;;
17382;SDS011;8809;51.892;8.384;2024-03-25T00:47:11;9.55;;;4.57;;
17382;SDS011;8809;51.892;8.384;2024-03-25T00:49:39;14.52;;;4.13;;
17382;SDS011;8809;51.892;8.384;2024-03-25T00:52:05;17.17;;;4.93;;
17382;SDS011;8809;51.892;8.384;2024-03-25T00:54:32;22.13;;;4.53;;
17382;SDS011;8809;51.892;8.384;2024-03-25T00:56:59;15.40;;;4.55;;
17382;SDS011;8809;51.892;8.384;2024-03-25T00:59:26;15.55;;;4.78;;
17382;SDS011;8809;51.892;8.384;2024-03-25T01:01:52;15.25;;;4.13;;
17382;SDS011;8809;51.892;8.384;2024-03-25T01:04:21;23.33;;;5.15;;
17382;SDS011;8809;51.892;8.384;2024-03-25T01:06:47;15.63;;;4.45;;
17382;SDS011;8809;51.892;8.384;2024-03-25T01:09:14;13.43;;;4.25;;
17382;SDS011;8809;51.892;8.384;2024-03-25T01:11:41;20.83;;;4.75;;
17382;SDS011;8809;51.892;8.384;2024-03-25T01:14:08;10.85;;;3.65;;
17382;SDS011;8809;51.892;8.384;2024-03-25T01:16:34;15.27;;;4.30;;
17382;SDS011;8809;51.892;8.384;2024-03-25T01:19:01;13.85;;;3.97;;
17382;SDS011;8809;51.892;8.384;2024-03-25T01:21:29;9.73;;;3.58;;
17382;SDS011;8809;51.892;8.384;2024-03-25T01:23:56;14.55;;;4.35;;
17382;SDS011;8809;51.892;8.384;2024-03-25T01:26:22;18.05;;;4.57;;
17382;SDS011;8809;51.892;8.384;2024-03-25T01:28:49;12.82;;;3.58;;
17382;SDS011;8809;51.892;8.384;2024-03-25T01:31:15;17.35;;;3.83;;
17382;SDS011;8809;51.892;8.384;2024-03-25T01:33:42;13.25;;;3.78;;
17382;SDS011;8809;51.892;8.384;2024-03-25T01:36:08;17.08;;;5.05;;
17382;SDS011;8809;51.892;8.384;2024-03-25T01:38:38;9.38;;;3.75;;
17382;SDS011;8809;51.892;8.384;2024-03-25T01:41:07;13.68;;;3.85;;
17382;SDS011;8809;51.892;8.384;2024-03-25T01:43:35;9.50;;;3.58;;
17382;SDS011;8809;51.892;8.384;2024-03-25T01:46:01;9.23;;;3.08;;
17382;SDS011;8809;51.892;8.384;2024-03-25T01:48:28;11.60;;;3.88;;
17382;SDS011;8809;51.892;8.384;2024-03-25T01:50:54;16.90;;;4.57;;
17382;SDS011;8809;51.892;8.384;2024-03-25T01:53:23;16.42;;;3.90;;
17382;SDS011;8809;51.892;8.384;2024-03-25T01:55:53;12.77;;;3.95;;
17382;SDS011;8809;51.892;8.384;2024-03-25T01:58:22;12.60;;;4.05;;
17382;SDS011;8809;51.892;8.384;2024-03-25T02:00:51;14.15;;;4.05;;
17382;SDS011;8809;51.892;8.384;2024-03-25T02:03:20;12.40;;;3.97;;
17382;SDS011;8809;51.892;8.384;2024-03-25T02:05:47;9.07;;;2.97;;
17382;SDS011;8809;51.892;8.384;2024-03-25T02:08:17;13.88;;;4.05;;
17382;SDS011;8809;51.892;8.384;2024-03-25T02:10:44;14.82;;;3.80;;
17382;SDS011;8809;51.892;8.384;2024-03-25T02:13:13;14.23;;;4.10;;
17382;SDS011;8809;51.892;8.384;2024-03-25T02:15:40;11.10;;;3.60;;
17382;SDS011;8809;51.892;8.384;2024-03-25T02:18:07;12.30;;;3.35;;
17382;SDS011;8809;51.892;8.384;2024-03-25T02:20:33;14.80;;;4.05;;
17382;SDS011;8809;51.892;8.384;2024-03-25T02:23:00;12.50;;;4.15;;
17382;SDS011;8809;51.892;8.384;2024-03-25T02:25:27;14.55;;;3.75;;
17382;SDS011;8809;51.892;8.384;2024-03-25T02:27:58;10.15;;;3.13;;
17382;SDS011;8809;51.892;8.384;2024-03-25T02:30:24;10.77;;;3.63;;
17382;SDS011;8809;51.892;8.384;2024-03-25T02:32:51;12.63;;;3.80;;
17382;SDS011;8809;51.892;8.384;2024-03-25T02:35:17;9.70;;;3.47;;
17382;SDS011;8809;51.892;8.384;2024-03-25T02:37:44;11.73;;;3.30;;
17382;SDS011;8809;51.892;8.384;2024-03-25T02:40:10;12.02;;;3.88;;
17382;SDS011;8809;51.892;8.384;2024-03-25T02:42:37;13.40;;;3.72;;
17382;SDS011;8809;51.892;8.384;2024-03-25T02:45:07;12.57;;;3.33;;
17382;SDS011;8809;51.892;8.384;2024-03-25T02:47:35;13.23;;;3.72;;
17382;SDS011;8809;51.892;8.384;2024-03-25T02:50:01;18.38;;;5.00;;
17382;SDS011;8809;51.892;8.384;2024-03-25T02:52:29;13.88;;;3.78;;
17382;SDS011;8809;51.892;8.384;2024-03-25T02:54:55;12.93;;;4.20;;
17382;SDS011;8809;51.892;8.384;2024-03-25T02:57:22;15.38;;;4.90;;
17382;SDS011;8809;51.892;8.384;2024-03-25T02:59:49;13.27;;;3.45;;
17382;SDS011;8809;51.892;8.384;2024-03-25T03:02:18;21.23;;;4.78;;
17382;SDS011;8809;51.892;8.384;2024-03-25T03:04:43;16.83;;;5.00;;
17382;SDS011;8809;51.892;8.384;2024-03-25T03:07:10;13.35;;;3.28;;
17382;SDS011;8809;51.892;8.384;2024-03-25T03:09:37;17.15;;;4.00;;
17382;SDS011;8809;51.892;8.384;2024-03-25T03:12:04;16.88;;;4.60;;
17382;SDS011;8809;51.892;8.384;2024-03-25T03:14:31;8.57;;;3.65;;
17382;SDS011;8809;51.892;8.384;2024-03-25T03:16:58;11.57;;;3.92;;
17382;SDS011;8809;51.892;8.384;2024-03-25T03:19:26;14.55;;;3.95;;
17382;SDS011;8809;51.892;8.384;2024-03-25T03:21:53;15.13;;;4.25;;
17382;SDS011;8809;51.892;8.384;2024-03-25T03:24:19;15.82;;;4.35;;
17382;SDS011;8809;51.892;8.384;2024-03-25T03:26:46;12.30;;;4.18;;
17382;SDS011;8809;51.892;8.384;2024-03-25T03:29:12;14.70;;;4.50;;
17382;SDS011;8809;51.892;8.384;2024-03-25T03:31:39;18.13;;;4.18;;
17382;SDS011;8809;51.892;8.384;2024-03-25T03:34:05;13.70;;;4.18;;
17382;SDS011;8809;51.892;8.384;2024-03-25T03:36:34;18.48;;;4.78;;
17382;SDS011;8809;51.892;8.384;2024-03-25T03:38:59;17.45;;;4.90;;
17382;SDS011;8809;51.892;8.384;2024-03-25T03:41:28;17.75;;;5.10;;
17382;SDS011;8809;51.892;8.384;2024-03-25T03:43:54;19.15;;;4.97;;
17382;SDS011;8809;51.892;8.384;2024-03-25T03:46:21;14.65;;;4.30;;
17382;SDS011;8809;51.892;8.384;2024-03-25T03:48:48;16.90;;;5.20;;
17382;SDS011;8809;51.892;8.384;2024-03-25T03:51:15;13.60;;;4.15;;
17382;SDS011;8809;51.892;8.384;2024-03-25T03:53:42;16.42;;;4.50;;
17382;SDS011;8809;51.892;8.384;2024-03-25T03:56:09;14.02;;;4.82;;
17382;SDS011;8809;51.892;8.384;2024-03-25T03:58:35;11.45;;;4.45;;
17382;SDS011;8809;51.892;8.384;2024-03-25T04:01:02;18.38;;;5.22;;
17382;SDS011;8809;51.892;8.384;2024-03-25T04:03:29;17.40;;;4.45;;
17382;SDS011;8809;51.892;8.384;2024-03-25T04:05:56;25.15;;;5.50;;
17382;SDS011;8809;51.892;8.384;2024-03-25T04:08:22;12.63;;;4.65;;
17382;SDS011;8809;51.892;8.384;2024-03-25T04:10:51;13.60;;;4.40;;
17382;SDS011;8809;51.892;8.384;2024-03-25T04:13:17;16.77;;;4.65;;
17382;SDS011;8809;51.892;8.384;2024-03-25T04:15:45;13.90;;;4.10;;
17382;SDS011;8809;51.892;8.384;2024-03-25T04:18:12;12.65;;;4.38;;
17382;SDS011;8809;51.892;8.384;2024-03-25T04:20:40;13.05;;;4.07;;
17382;SDS011;8809;51.892;8.384;2024-03-25T04:23:07;10.65;;;4.30;;
17382;SDS011;8809;51.892;8.384;2024-03-25T04:25:34;16.42;;;5.00;;
17382;SDS011;8809;51.892;8.384;2024-03-25T04:28:05;17.50;;;4.68;;
17382;SDS011;8809;51.892;8.384;2024-03-25T04:30:32;12.80;;;3.92;;
17382;SDS011;8809;51.892;8.384;2024-03-25T04:32:59;10.45;;;4.40;;
17382;SDS011;8809;51.892;8.384;2024-03-25T04:35:26;12.18;;;4.20;;
17382;SDS011;8809;51.892;8.384;2024-03-25T04:37:52;14.95;;;4.25;;
17382;SDS011;8809;51.892;8.384;2024-03-25T04:40:18;18.45;;;4.60;;
17382;SDS011;8809;51.892;8.384;2024-03-25T04:42:44;15.95;;;3.60;;
17382;SDS011;8809;51.892;8.384;2024-03-25T04:45:11;12.88;;;4.25;;
17382;SDS011;8809;51.892;8.384;2024-03-25T04:47:38;14.32;;;4.25;;
17382;SDS011;8809;51.892;8.384;2024-03-25T04:50:05;16.17;;;4.18;;
17382;SDS011;8809;51.892;8.384;2024-03-25T04:52:31;13.25;;;4.18;;
17382;SDS011;8809;51.892;8.384;2024-03-25T04:54:57;10.63;;;3.97;;
17382;SDS011;8809;51.892;8.384;2024-03-25T04:57:23;13.65;;;4.05;;
17382;SDS011;8809;51.892;8.384;2024-03-25T04:59:49;10.88;;;3.80;;
17382;SDS011;8809;51.892;8.384;2024-03-25T05:02:17;11.35;;;3.45;;
17382;SDS011;8809;51.892;8.384;2024-03-25T05:04:43;11.48;;;3.97;;
17382;SDS011;8809;51.892;8.384;2024-03-25T05:07:09;11.82;;;4.25;;
17382;SDS011;8809;51.892;8.384;2024-03-25T05:09:35;8.93;;;3.95;;
17382;SDS011;8809;51.892;8.384;2024-03-25T05:12:01;14.65;;;3.58;;
17382;SDS011;8809;51.892;8.384;2024-03-25T05:14:28;11.43;;;3.80;;
17382;SDS011;8809;51.892;8.384;2024-03-25T05:16:54;12.02;;;3.53;;
17382;SDS011;8809;51.892;8.384;2024-03-25T05:19:21;8.68;;;3.55;;
17382;SDS011;8809;51.892;8.384;2024-03-25T05:21:47;9.18;;;4.10;;
17382;SDS011;8809;51.892;8.384;2024-03-25T05:24:13;13.95;;;4.80;;
17382;SDS011;8809;51.892;8.384;2024-03-25T05:26:39;16.92;;;4.57;;
17382;SDS011;8809;51.892;8.384;2024-03-25T05:29:05;12.07;;;4.00;;
17382;SDS011;8809;51.892;8.384;2024-03-25T05:31:32;16.08;;;4.72;;
17382;SDS011;8809;51.892;8.384;2024-03-25T05:33:59;10.00;;;3.90;;
17382;SDS011;8809;51.892;8.384;2024-03-25T05:36:27;12.63;;;4.30;;
17382;SDS011;8809;51.892;8.384;2024-03-25T05:38:53;12.45;;;3.70;;
17382;SDS011;8809;51.892;8.384;2024-03-25T05:41:19;15.43;;;4.70;;
17382;SDS011;8809;51.892;8.384;2024-03-25T05:43:45;13.65;;;4.13;;
17382;SDS011;8809;51.892;8.384;2024-03-25T05:46:11;11.80;;;3.88;;
17382;SDS011;8809;51.892;8.384;2024-03-25T05:48:37;18.25;;;5.10;;
17382;SDS011;8809;51.892;8.384;2024-03-25T05:51:04;11.77;;;4.78;;
17382;SDS011;8809;51.892;8.384;2024-03-25T05:53:32;12.63;;;5.20;;
17382;SDS011;8809;51.892;8.384;2024-03-25T05:55:58;16.63;;;6.05;;
17382;SDS011;8809;51.892;8.384;2024-03-25T05:58:24;17.13;;;5.07;;
17382;SDS011;8809;51.892;8.384;2024-03-25T06:00:51;19.85;;;5.85;;
17382;SDS011;8809;51.892;8.384;2024-03-25T06:03:17;19.55;;;5.50;;
17382;SDS011;8809;51.892;8.384;2024-03-25T06:05:43;18.52;;;5.40;;
17382;SDS011;8809;51.892;8.384;2024-03-25T06:08:09;27.48;;;6.65;;
17382;SDS011;8809;51.892;8.384;2024-03-25T06:10:37;14.95;;;5.07;;
17382;SDS011;8809;51.892;8.384;2024-03-25T06:13:04;13.23;;;6.25;;
17382;SDS011;8809;51.892;8.384;2024-03-25T06:15:30;15.55;;;5.72;;
17382;SDS011;8809;51.892;8.384;2024-03-25T06:17:56;21.65;;;6.07;;
17382;SDS011;8809;51.892;8.384;2024-03-25T06:20:22;23.92;;;6.97;;
17382;SDS011;8809;51.892;8.384;2024-03-25T06:22:48;18.58;;;6.38;;
17382;SDS011;8809;51.892;8.384;2024-03-25T06:25:14;18.52;;;6.35;;
17382;SDS011;8809;51.892;8.384;2024-03-25T06:27:42;17.30;;;6.57;;
17382;SDS011;8809;51.892;8.384;2024-03-25T06:30:09;23.98;;;5.88;;
17382;SDS011;8809;51.892;8.384;2024-03-25T06:32:54;20.17;;;6.13;;
17382;SDS011;8809;51.892;8.384;2024-03-25T06:35:42;17.88;;;6.32;;
17382;SDS011;8809;51.892;8.384;2024-03-25T06:38:09;14.27;;;6.05;;
17382;SDS011;8809;51.892;8.384;2024-03-25T06:40:36;23.30;;;6.72;;
17382;SDS011;8809;51.892;8.384;2024-03-25T06:43:03;14.02;;;5.65;;
17382;SDS011;8809;51.892;8.384;2024-03-25T06:45:30;15.10;;;5.32;;
17382;SDS011;8809;51.892;8.384;2024-03-25T06:47:58;10.00;;;4.65;;
17382;SDS011;8809;51.892;8.384;2024-03-25T06:50:24;11.60;;;5.20;;
17382;SDS011;8809;51.892;8.384;2024-03-25T06:52:50;21.05;;;6.00;;
17382;SDS011;8809;51.892;8.384;2024-03-25T06:55:16;15.90;;;5.55;;
17382;SDS011;8809;51.892;8.384;2024-03-25T06:57:42;12.38;;;4.93;;
17382;SDS011;8809;51.892;8.384;2024-03-25T07:00:11;16.13;;;5.68;;
17382;SDS011;8809;51.892;8.384;2024-03-25T07:02:39;15.95;;;5.10;;
17382;SDS011;8809;51.892;8.384;2024-03-25T07:05:05;14.77;;;4.80;;
17382;SDS011;8809;51.892;8.384;2024-03-25T07:07:32;18.13;;;5.63;;
17382;SDS011;8809;51.892;8.384;2024-03-25T07:09:58;17.48;;;5.65;;
17382;SDS011;8809;51.892;8.384;2024-03-25T07:12:25;15.93;;;6.13;;
17382;SDS011;8809;51.892;8.384;2024-03-25T07:14:51;15.77;;;5.40;;
17382;SDS011;8809;51.892;8.384;2024-03-25T07:17:18;19.08;;;6.55;;
17382;SDS011;8809;51.892;8.384;2024-03-25T07:19:44;15.65;;;6.63;;
17382;SDS011;8809;51.892;8.384;2024-03-25T07:22:10;20.27;;;7.80;;
17382;SDS011;8809;51.892;8.384;2024-03-25T07:24:37;18.15;;;7.82;;
17382;SDS011;8809;51.892;8.384;2024-03-25T07:27:03;20.15;;;8.20;;
17382;SDS011;8809;51.892;8.384;2024-03-25T07:29:29;16.42;;;7.53;;
17382;SDS011;8809;51.892;8.384;2024-03-25T07:31:55;17.40;;;7.18;;
17382;SDS011;8809;51.892;8.384;2024-03-25T07:34:22;16.67;;;7.00;;
17382;SDS011;8809;51.892;8.384;2024-03-25T07:36:48;16.73;;;7.40;;
17382;SDS011;8809;51.892;8.384;2024-03-25T07:39:14;18.15;;;8.50;;
17382;SDS011;8809;51.892;8.384;2024-03-25T07:41:40;26.00;;;9.85;;
17382;SDS011;8809;51.892;8.384;2024-03-25T07:44:06;21.75;;;8.85;;
17382;SDS011;8809;51.892;8.384;2024-03-25T07:46:32;22.50;;;8.43;;
17382;SDS011;8809;51.892;8.384;2024-03-25T07:48:59;24.60;;;9.80;;
17382;SDS011;8809;51.892;8.384;2024-03-25T07:51:27;26.00;;;9.07;;
17382;SDS011;8809;51.892;8.384;2024-03-25T07:53:53;23.92;;;9.07;;
17382;SDS011;8809;51.892;8.384;2024-03-25T07:56:19;16.98;;;7.38;;
17382;SDS011;8809;51.892;8.384;2024-03-25T07:58:45;12.88;;;6.53;;
17382;SDS011;8809;51.892;8.384;2024-03-25T08:01:11;17.10;;;7.28;;
17382;SDS011;8809;51.892;8.384;2024-03-25T08:03:37;21.15;;;9.05;;
17382;SDS011;8809;51.892;8.384;2024-03-25T08:06:03;22.88;;;8.48;;
17382;SDS011;8809;51.892;8.384;2024-03-25T08:08:31;18.83;;;8.20;;
17382;SDS011;8809;51.892;8.384;2024-03-25T08:10:57;24.45;;;8.63;;
17382;SDS011;8809;51.892;8.384;2024-03-25T08:13:23;18.35;;;7.15;;
17382;SDS011;8809;51.892;8.384;2024-03-25T08:15:49;23.20;;;8.85;;
17382;SDS011;8809;51.892;8.384;2024-03-25T08:18:15;16.55;;;7.00;;
17382;SDS011;8809;51.892;8.384;2024-03-25T08:20:41;13.30;;;6.05;;
17382;SDS011;8809;51.892;8.384;2024-03-25T08:23:07;19.63;;;6.75;;
17382;SDS011;8809;51.892;8.384;2024-03-25T08:25:35;22.38;;;8.15;;
17382;SDS011;8809;51.892;8.384;2024-03-25T08:28:01;17.95;;;7.15;;
17382;SDS011;8809;51.892;8.384;2024-03-25T08:30:27;19.00;;;7.50;;
17382;SDS011;8809;51.892;8.384;2024-03-25T08:32:53;14.82;;;6.28;;
17382;SDS011;8809;51.892;8.384;2024-03-25T08:35:19;19.27;;;7.72;;
17382;SDS011;8809;51.892;8.384;2024-03-25T08:37:45;14.05;;;6.53;;
17382;SDS011;8809;51.892;8.384;2024-03-25T08:40:11;12.20;;;6.13;;
17382;SDS011;8809;51.892;8.384;2024-03-25T08:42:39;13.18;;;5.80;;
17382;SDS011;8809;51.892;8.384;2024-03-25T08:45:05;18.63;;;7.38;;
17382;SDS011;8809;51.892;8.384;2024-03-25T08:47:32;21.23;;;7.40;;
17382;SDS011;8809;51.892;8.384;2024-03-25T08:49:58;16.38;;;6.95;;
17382;SDS011;8809;51.892;8.384;2024-03-25T08:52:24;17.80;;;6.32;;
17382;SDS011;8809;51.892;8.384;2024-03-25T08:54:50;19.98;;;6.95;;
17382;SDS011;8809;51.892;8.384;2024-03-25T08:57:16;18.23;;;6.05;;
17382;SDS011;8809;51.892;8.384;2024-03-25T08:59:43;21.45;;;6.32;;
17382;SDS011;8809;51.892;8.384;2024-03-25T09:02:09;16.45;;;5.97;;
17382;SDS011;8809;51.892;8.384;2024-03-25T09:04:35;16.35;;;6.40;;
17382;SDS011;8809;51.892;8.384;2024-03-25T09:07:01;14.85;;;5.97;;
17382;SDS011;8809;51.892;8.384;2024-03-25T09:09:27;16.15;;;6.78;;
17382;SDS011;8809;51.892;8.384;2024-03-25T09:12:11;13.02;;;5.25;;
17382;SDS011;8809;51.892;8.384;2024-03-25T09:14:38;11.20;;;4.72;;
17382;SDS011;8809;51.892;8.384;2024-03-25T09:17:05;13.65;;;4.55;;
17382;SDS011;8809;51.892;8.384;2024-03-25T09:19:31;15.23;;;5.10;;
17382;SDS011;8809;51.892;8.384;2024-03-25T09:21:57;15.02;;;4.97;;
17382;SDS011;8809;51.892;8.384;2024-03-25T09:24:23;14.82;;;4.55;;
17382;SDS011;8809;51.892;8.384;2024-03-25T09:26:49;13.10;;;4.13;;
17382;SDS011;8809;51.892;8.384;2024-03-25T09:29:15;7.72;;;3.88;;
17382;SDS011;8809;51.892;8.384;2024-03-25T09:31:41;12.35;;;4.18;;
17382;SDS011;8809;51.892;8.384;2024-03-25T09:34:09;11.38;;;3.95;;
17382;SDS011;8809;51.892;8.384;2024-03-25T09:36:35;14.38;;;3.88;;
17382;SDS011;8809;51.892;8.384;2024-03-25T09:39:00;9.00;;;3.28;;
17382;SDS011;8809;51.892;8.384;2024-03-25T09:41:27;11.48;;;3.10;;
17382;SDS011;8809;51.892;8.384;2024-03-25T09:43:55;11.27;;;3.30;;
17382;SDS011;8809;51.892;8.384;2024-03-25T09:46:21;15.25;;;3.95;;
17382;SDS011;8809;51.892;8.384;2024-03-25T09:48:49;8.95;;;3.10;;
17382;SDS011;8809;51.892;8.384;2024-03-25T09:51:19;9.27;;;3.17;;
17382;SDS011;8809;51.892;8.384;2024-03-25T09:53:46;5.70;;;2.58;;
17382;SDS011;8809;51.892;8.384;2024-03-25T09:56:12;14.73;;;3.90;;
17382;SDS011;8809;51.892;8.384;2024-03-25T09:58:39;9.55;;;2.75;;
17382;SDS011;8809;51.892;8.384;2024-03-25T10:01:06;7.63;;;3.00;;
17382;SDS011;8809;51.892;8.384;2024-03-25T10:03:32;13.98;;;2.97;;
17382;SDS011;8809;51.892;8.384;2024-03-25T10:05:58;7.35;;;2.90;;
17382;SDS011;8809;51.892;8.384;2024-03-25T10:08:26;10.15;;;3.38;;
17382;SDS011;8809;51.892;8.384;2024-03-25T10:10:52;12.80;;;3.38;;
17382;SDS011;8809;51.892;8.384;2024-03-25T10:13:19;7.97;;;2.90;;
17382;SDS011;8809;51.892;8.384;2024-03-25T10:15:47;7.93;;;2.78;;
17382;SDS011;8809;51.892;8.384;2024-03-25T10:18:13;11.27;;;2.80;;
17382;SDS011;8809;51.892;8.384;2024-03-25T10:20:47;12.10;;;4.22;;
17382;SDS011;8809;51.892;8.384;2024-03-25T10:23:13;7.97;;;3.30;;
17382;SDS011;8809;51.892;8.384;2024-03-25T10:25:41;10.50;;;3.45;;
17382;SDS011;8809;51.892;8.384;2024-03-25T10:28:08;8.07;;;2.60;;
17382;SDS011;8809;51.892;8.384;2024-03-25T10:30:34;6.38;;;2.28;;
17382;SDS011;8809;51.892;8.384;2024-03-25T10:33:00;7.03;;;2.17;;
17382;SDS011;8809;51.892;8.384;2024-03-25T10:35:28;4.53;;;1.73;;
17382;SDS011;8809;51.892;8.384;2024-03-25T10:37:55;4.07;;;1.65;;
17382;SDS011;8809;51.892;8.384;2024-03-25T10:40:25;2.40;;;1.10;;
17382;SDS011;8809;51.892;8.384;2024-03-25T10:42:55;5.00;;;1.42;;
17382;SDS011;8809;51.892;8.384;2024-03-25T10:45:26;7.10;;;1.98;;
17382;SDS011;8809;51.892;8.384;2024-03-25T10:47:55;4.03;;;1.50;;
17382;SDS011;8809;51.892;8.384;2024-03-25T10:50:24;3.08;;;1.52;;
17382;SDS011;8809;51.892;8.384;2024-03-25T10:52:54;4.10;;;1.90;;
17382;SDS011;8809;51.892;8.384;2024-03-25T10:55:20;5.32;;;2.00;;
17382;SDS011;8809;51.892;8.384;2024-03-25T10:57:47;6.32;;;1.73;;
17382;SDS011;8809;51.892;8.384;2024-03-25T11:00:16;4.93;;;1.90;;
17382;SDS011;8809;51.892;8.384;2024-03-25T11:02:42;7.55;;;1.80;;
17382;SDS011;8809;51.892;8.384;2024-03-25T11:05:09;9.38;;;1.92;;
17382;SDS011;8809;51.892;8.384;2024-03-25T11:07:37;3.28;;;1.63;;
17382;SDS011;8809;51.892;8.384;2024-03-25T11:10:04;7.22;;;1.80;;
17382;SDS011;8809;51.892;8.384;2024-03-25T11:12:34;2.97;;;1.63;;
17382;SDS011;8809;51.892;8.384;2024-03-25T11:15:01;4.82;;;1.95;;
17382;SDS011;8809;51.892;8.384;2024-03-25T11:17:31;5.35;;;2.00;;
17382;SDS011;8809;51.892;8.384;2024-03-25T11:22:48;6.70;;;2.20;;
17382;SDS011;8809;51.892;8.384;2024-03-25T11:25:15;8.25;;;1.90;;
17382;SDS011;8809;51.892;8.384;2024-03-25T11:27:42;3.58;;;1.85;;
17382;SDS011;8809;51.892;8.384;2024-03-25T11:30:10;6.90;;;2.00;;
17382;SDS011;8809;51.892;8.384;2024-03-25T11:32:44;4.32;;;1.63;;
17382;SDS011;8809;51.892;8.384;2024-03-25T11:35:11;5.57;;;1.80;;
17382;SDS011;8809;51.892;8.384;2024-03-25T11:37:39;5.07;;;1.70;;
17382;SDS011;8809;51.892;8.384;2024-03-25T11:40:06;5.88;;;1.77;;
17382;SDS011;8809;51.892;8.384;2024-03-25T11:42:35;4.30;;;1.70;;
17382;SDS011;8809;51.892;8.384;2024-03-25T11:45:01;4.57;;;1.63;;
17382;SDS011;8809;51.892;8.384;2024-03-25T11:47:28;1.90;;;1.23;;
17382;SDS011;8809;51.892;8.384;2024-03-25T11:49:55;4.57;;;1.40;;
17382;SDS011;8809;51.892;8.384;2024-03-25T11:52:21;4.70;;;1.70;;
17382;SDS011;8809;51.892;8.384;2024-03-25T11:54:53;5.05;;;1.65;;
17382;SDS011;8809;51.892;8.384;2024-03-25T11:57:19;6.07;;;1.70;;
17382;SDS011;8809;51.892;8.384;2024-03-25T11:59:46;4.32;;;1.70;;
17382;SDS011;8809;51.892;8.384;2024-03-25T12:02:13;3.90;;;1.45;;
17382;SDS011;8809;51.892;8.384;2024-03-25T12:04:42;2.97;;;1.50;;
17382;SDS011;8809;51.892;8.384;2024-03-25T12:07:11;3.78;;;1.50;;
17382;SDS011;8809;51.892;8.384;2024-03-25T12:09:38;5.90;;;1.70;;
17382;SDS011;8809;51.892;8.384;2024-03-25T12:12:22;4.18;;;1.80;;
17382;SDS011;8809;51.892;8.384;2024-03-25T12:14:48;3.90;;;1.27;;
17382;SDS011;8809;51.892;8.384;2024-03-25T12:17:15;5.53;;;1.58;;
17382;SDS011;8809;51.892;8.384;2024-03-25T12:19:41;3.78;;;1.63;;
17382;SDS011;8809;51.892;8.384;2024-03-25T12:22:07;3.70;;;1.33;;
17382;SDS011;8809;51.892;8.384;2024-03-25T12:24:35;3.65;;;1.50;;
17382;SDS011;8809;51.892;8.384;2024-03-25T12:27:01;4.13;;;1.58;;
17382;SDS011;8809;51.892;8.384;2024-03-25T12:29:27;4.13;;;1.50;;
17382;SDS011;8809;51.892;8.384;2024-03-25T12:31:54;3.20;;;1.73;;
17382;SDS011;8809;51.892;8.384;2024-03-25T12:34:20;3.60;;;1.60;;
17382;SDS011;8809;51.892;8.384;2024-03-25T12:36:47;5.93;;;1.50;;
17382;SDS011;8809;51.892;8.384;2024-03-25T12:39:17;4.95;;;1.88;;
17382;SDS011;8809;51.892;8.384;2024-03-25T12:41:45;6.43;;;1.70;;
17382;SDS011;8809;51.892;8.384;2024-03-25T12:44:12;5.22;;;1.55;;
17382;SDS011;8809;51.892;8.384;2024-03-25T12:46:38;3.55;;;1.48;;
17382;SDS011;8809;51.892;8.384;2024-03-25T12:49:04;3.08;;;1.70;;
17382;SDS011;8809;51.892;8.384;2024-03-25T12:51:30;2.72;;;1.20;;
17382;SDS011;8809;51.892;8.384;2024-03-25T12:53:56;5.00;;;1.58;;
17382;SDS011;8809;51.892;8.384;2024-03-25T12:56:23;2.97;;;1.42;;
17382;SDS011;8809;51.892;8.384;2024-03-25T12:58:51;5.32;;;1.52;;
17382;SDS011;8809;51.892;8.384;2024-03-25T13:01:17;5.68;;;1.80;;
17382;SDS011;8809;51.892;8.384;2024-03-25T13:03:43;3.15;;;1.60;;
17382;SDS011;8809;51.892;8.384;2024-03-25T13:06:09;3.78;;;1.33;;
17382;SDS011;8809;51.892;8.384;2024-03-25T13:08:37;4.47;;;1.52;;
17382;SDS011;8809;51.892;8.384;2024-03-25T13:11:03;4.07;;;1.70;;
17382;SDS011;8809;51.892;8.384;2024-03-25T13:13:29;4.88;;;1.88;;
17382;SDS011;8809;51.892;8.384;2024-03-25T13:15:56;3.42;;;1.48;;
17382;SDS011;8809;51.892;8.384;2024-03-25T13:18:22;3.30;;;1.27;;
17382;SDS011;8809;51.892;8.384;2024-03-25T13:20:48;6.30;;;1.70;;
17382;SDS011;8809;51.892;8.384;2024-03-25T13:23:14;4.97;;;1.63;;
17382;SDS011;8809;51.892;8.384;2024-03-25T13:25:40;4.65;;;1.85;;
17382;SDS011;8809;51.892;8.384;2024-03-25T13:28:06;5.22;;;1.80;;
17382;SDS011;8809;51.892;8.384;2024-03-25T13:30:32;3.03;;;1.45;;
17382;SDS011;8809;51.892;8.384;2024-03-25T13:33:01;4.40;;;1.50;;
17382;SDS011;8809;51.892;8.384;2024-03-25T13:35:27;4.35;;;1.40;;
17382;SDS011;8809;51.892;8.384;2024-03-25T13:37:54;6.70;;;1.50;;
17382;SDS011;8809;51.892;8.384;2024-03-25T13:40:20;2.97;;;1.33;;
17382;SDS011;8809;51.892;8.384;2024-03-25T13:42:46;4.68;;;1.58;;
17382;SDS011;8809;51.892;8.384;2024-03-25T13:45:12;5.20;;;1.50;;
17382;SDS011;8809;51.892;8.384;2024-03-25T13:47:39;4.43;;;1.50;;
17382;SDS011;8809;51.892;8.384;2024-03-25T13:50:07;3.78;;;1.70;;
17382;SDS011;8809;51.892;8.384;2024-03-25T13:52:34;3.67;;;1.63;;
17382;SDS011;8809;51.892;8.384;2024-03-25T13:55:00;4.18;;;1.35;;
17382;SDS011;8809;51.892;8.384;2024-03-25T13:57:26;2.85;;;1.42;;
17382;SDS011;8809;51.892;8.384;2024-03-25T13:59:56;5.82;;;1.50;;
17382;SDS011;8809;51.892;8.384;2024-03-25T14:02:23;4.03;;;1.50;;
17382;SDS011;8809;51.892;8.384;2024-03-25T14:04:49;3.83;;;1.60;;
17382;SDS011;8809;51.892;8.384;2024-03-25T14:07:17;4.60;;;1.58;;
17382;SDS011;8809;51.892;8.384;2024-03-25T14:09:43;4.05;;;1.40;;
17382;SDS011;8809;51.892;8.384;2024-03-25T14:12:09;2.42;;;1.13;;
17382;SDS011;8809;51.892;8.384;2024-03-25T14:14:35;4.53;;;1.55;;
17382;SDS011;8809;51.892;8.384;2024-03-25T14:17:01;7.57;;;1.85;;
17382;SDS011;8809;51.892;8.384;2024-03-25T14:19:27;3.72;;;1.35;;
17382;SDS011;8809;51.892;8.384;2024-03-25T14:21:53;4.03;;;1.42;;
17382;SDS011;8809;51.892;8.384;2024-03-25T14:24:21;4.00;;;1.45;;
17382;SDS011;8809;51.892;8.384;2024-03-25T14:26:47;2.63;;;1.20;;
17382;SDS011;8809;51.892;8.384;2024-03-25T14:29:13;3.53;;;1.50;;
17382;SDS011;8809;51.892;8.384;2024-03-25T14:31:40;6.40;;;1.42;;
17382;SDS011;8809;51.892;8.384;2024-03-25T14:34:06;3.70;;;1.30;;
17382;SDS011;8809;51.892;8.384;2024-03-25T14:36:32;3.22;;;1.25;;
17382;SDS011;8809;51.892;8.384;2024-03-25T14:38:58;2.88;;;1.40;;
17382;SDS011;8809;51.892;8.384;2024-03-25T14:41:25;4.88;;;1.80;;
17382;SDS011;8809;51.892;8.384;2024-03-25T14:43:51;5.13;;;1.50;;
17382;SDS011;8809;51.892;8.384;2024-03-25T14:46:17;3.80;;;1.50;;
17382;SDS011;8809;51.892;8.384;2024-03-25T14:48:44;2.78;;;1.10;;
17382;SDS011;8809;51.892;8.384;2024-03-25T14:51:10;3.30;;;1.17;;
17382;SDS011;8809;51.892;8.384;2024-03-25T14:53:36;2.85;;;1.50;;